»·PEaware :: N4657 KSNA-KAPV

N4657 :: KSNA-KAPV

FLIGHT INFORMATION

Flight Status: Arrived
Operator: Privately registered:
United States
More flights under this callsign
Pilot: Daniel P. (20187)
Aircraft: PILATUS PC-12 EAGLE
(PC12)
More flights by this aircraft type
Origin: KSNA John Wayne-Orange Co
United States
Destination: KAPV Apple Valley
United States
More flights between these airports :: More routes between these airports
Route: +SLI V21 PDZ V442 APLES
File this flight plan on PilotEdge
Remarks:
Altitude:
(Current/Filed)
80ft
Speed:
(Current/Filed)
200kts
Departed: 06-Oct-18 12:44 PM
Arrived: 06-Oct-18 01:20 PM
Distance/Time
Traveled:
64nm/0:35
Distance/Time
To Go:
Arrived

Flight Plot

Page will automatically refresh every two minutes.

Flight plan parsing failed; only flown route is shown


Map Options




Map Legend


Flown Route
Filed Route
Departure Airport
Arrival Airport
Navaid (VOR, NDB)
Fix

Horizontal Profiles

Position Reports

Time Latitude Longitude Heading Altitude Ground
Speed
06-Oct-18 12:09 33.675090 -117.871553 210 60ft 0kts
06-Oct-18 12:10 33.675090 -117.871553 210 60ft 0kts
06-Oct-18 12:11 33.675090 -117.871553 210 60ft 0kts
06-Oct-18 12:12 33.675090 -117.871553 210 60ft 0kts
06-Oct-18 12:13 33.675090 -117.871553 210 60ft 0kts
06-Oct-18 12:14 33.675090 -117.871553 210 60ft 0kts
06-Oct-18 12:15 33.675090 -117.871553 210 60ft 0kts
06-Oct-18 12:16 33.675090 -117.871553 210 60ft 0kts
06-Oct-18 12:17 33.675090 -117.871553 210 60ft 0kts
06-Oct-18 12:18 33.675090 -117.871553 210 60ft 0kts
06-Oct-18 12:19 33.675090 -117.871553 210 60ft 0kts
06-Oct-18 12:20 33.675090 -117.871553 210 60ft 0kts
06-Oct-18 12:21 33.675090 -117.871553 210 60ft 0kts
06-Oct-18 12:22 33.675090 -117.871553 210 60ft 0kts
06-Oct-18 12:23 33.675090 -117.871553 210 60ft 0kts
06-Oct-18 12:24 33.675089 -117.871553 210 60ft 0kts
06-Oct-18 12:25 33.675089 -117.871553 210 60ft 0kts
06-Oct-18 12:26 33.675089 -117.871553 210 60ft 0kts
06-Oct-18 12:27 33.675089 -117.871553 210 60ft 0kts
06-Oct-18 12:28 33.675089 -117.871553 210 60ft 0kts
06-Oct-18 12:29 33.675089 -117.871553 210 60ft 0kts
06-Oct-18 12:30 33.675089 -117.871553 210 60ft 0kts
06-Oct-18 12:31 33.675089 -117.871553 210 60ft 0kts
06-Oct-18 12:32 33.675089 -117.871553 210 60ft 0kts
06-Oct-18 12:33 33.675089 -117.871553 210 60ft 0kts
06-Oct-18 12:34 33.675089 -117.871553 210 60ft 0kts
06-Oct-18 12:35 33.675089 -117.871553 210 60ft 0kts
06-Oct-18 12:36 33.675089 -117.871553 210 60ft 0kts
06-Oct-18 12:37 33.675089 -117.871553 210 60ft 0kts
06-Oct-18 12:38 33.675089 -117.871553 210 60ft 0kts
06-Oct-18 12:39 33.675089 -117.871553 210 60ft 0kts
06-Oct-18 12:40 33.675492 -117.870466 29 60ft 11kts
06-Oct-18 12:41 33.677618 -117.869108 30 60ft 10kts
06-Oct-18 12:42 33.681119 -117.867045 42 60ft 8kts
06-Oct-18 12:43 33.681203 -117.866433 119 60ft 0kts
06-Oct-18 12:44 33.681203 -117.866433 119 60ft 0kts
06-Oct-18 12:45 33.681170 -117.866364 117 60ft 3kts
06-Oct-18 12:46 33.677513 -117.867679 206 60ft 80kts
06-Oct-18 12:47 33.648707 -117.878894 186 1461ft 130kts
06-Oct-18 12:48 33.609721 -117.883624 186 3248ft 157kts
06-Oct-18 12:49 33.568182 -117.876527 112 5087ft 178kts
06-Oct-18 12:50 33.597241 -117.839956 2 6801ft 193kts
06-Oct-18 12:51 33.642045 -117.827861 10 7992ft 217kts
06-Oct-18 12:52 33.699176 -117.810337 10 8006ft 248kts
06-Oct-18 12:53 33.749173 -117.795044 11 8005ft 255kts
06-Oct-18 12:54 33.814978 -117.774591 10 7999ft 257kts
06-Oct-18 12:55 33.864945 -117.723748 61 8700ft 244kts
06-Oct-18 12:56 33.888170 -117.648276 70 9000ft 256kts
06-Oct-18 12:57 33.908406 -117.569777 70 9005ft 264kts
06-Oct-18 12:58 33.950194 -117.511926 22 8981ft 251kts
06-Oct-18 12:59 34.010249 -117.475262 21 8976ft 248kts
06-Oct-18 13:00 34.068247 -117.440409 21 8976ft 246kts
06-Oct-18 13:01 34.124768 -117.406461 21 8984ft 246kts
06-Oct-18 13:02 34.182582 -117.371419 21 8994ft 247kts
06-Oct-18 13:03 34.242700 -117.335088 21 9001ft 250kts
06-Oct-18 13:04 34.305491 -117.301485 1 9003ft 244kts
06-Oct-18 13:05 34.368353 -117.292369 0 8983ft 221kts
06-Oct-18 13:06 34.431317 -117.282948 1 8977ft 232kts
06-Oct-18 13:07 34.495815 -117.273173 1 8977ft 235kts
06-Oct-18 13:08 34.559660 -117.263446 0 8642ft 227kts
06-Oct-18 13:09 34.622324 -117.253980 0 8613ft 217kts
06-Oct-18 13:10 34.681906 -117.245027 0 8971ft 221kts
06-Oct-18 13:11 34.744008 -117.235555 0 8975ft 225kts
06-Oct-18 13:12 34.805674 -117.226122 1 8973ft 221kts
06-Oct-18 13:13 34.832654 -117.183188 111 8508ft 197kts
06-Oct-18 13:14 34.815891 -117.121729 123 7696ft 189kts
06-Oct-18 13:15 34.773518 -117.117562 202 6926ft 159kts
06-Oct-18 13:16 34.730904 -117.132338 205 6123ft 160kts
06-Oct-18 13:17 34.692973 -117.146021 207 5381ft 121kts
06-Oct-18 13:18 34.662159 -117.155761 202 4850ft 114kts
06-Oct-18 13:19 34.632228 -117.165563 207 4209ft 101kts
06-Oct-18 13:20 34.607443 -117.175566 207 3597ft 94kts
06-Oct-18 13:21 34.582513 -117.184238 203 3070ft 78kts
06-Oct-18 13:22 34.579182 -117.186660 278 3066ft 0kts
06-Oct-18 13:23 34.577089 -117.187571 198 3066ft 10kts
06-Oct-18 13:24 34.573853 -117.188791 209 3066ft 9kts
06-Oct-18 13:25 34.573135 -117.189294 0 3066ft 0kts
06-Oct-18 13:26 34.573135 -117.189294 0 3066ft 0kts

Navigation Log

Ident Type
Flight plan parsing failed, navigation log unavailable